createdAt,value
2022-12-27T00:02:38.892Z,70.73
2022-12-27T00:05:45.110Z,70.49
2022-12-27T00:08:49.897Z,70.27
2022-12-27T00:11:57.993Z,69.93
2022-12-27T00:15:06.301Z,70.44
2022-12-27T00:18:10.056Z,72.19
2022-12-27T00:21:15.391Z,71.49
2022-12-27T00:24:19.265Z,71.80
2022-12-27T00:27:22.929Z,70.78
2022-12-27T00:30:28.023Z,71.62
2022-12-27T00:33:33.594Z,72.39
2022-12-27T00:36:37.313Z,71.11
2022-12-27T00:39:41.073Z,71.64
2022-12-27T00:42:45.220Z,70.99
2022-12-27T00:45:50.500Z,70.49
2022-12-27T00:48:54.129Z,70.52
2022-12-27T00:51:58.153Z,69.91
2022-12-27T00:55:01.758Z,70.04
2022-12-27T00:58:05.698Z,69.52
2022-12-27T01:01:14.020Z,70.04
2022-12-27T01:04:17.887Z,69.42
2022-12-27T01:07:23.096Z,71.00
2022-12-27T01:10:26.619Z,70.45
2022-12-27T01:13:30.355Z,70.53
2022-12-27T01:16:35.716Z,71.64
2022-12-27T01:19:40.513Z,71.14
2022-12-27T01:22:44.152Z,70.82
2022-12-27T01:25:47.840Z,70.03
2022-12-27T01:28:52.364Z,69.76
2022-12-27T01:31:57.466Z,68.95
2022-12-27T01:35:02.581Z,69.94
2022-12-27T01:38:06.144Z,70.08
2022-12-27T01:41:28.143Z,70.77
2022-12-27T01:44:56.500Z,69.95
2022-12-27T01:48:06.070Z,70.92
2022-12-27T01:51:11.439Z,71.50
2022-12-27T01:54:15.224Z,71.19
2022-12-27T01:57:18.762Z,70.34
2022-12-27T02:00:22.575Z,70.66
2022-12-27T02:03:34.570Z,70.47
2022-12-27T02:06:41.063Z,70.09
2022-12-27T02:09:49.562Z,70.21
2022-12-27T02:12:53.282Z,69.69
2022-12-27T02:15:56.918Z,70.95
2022-12-27T02:19:02.018Z,71.76
2022-12-27T02:22:55.609Z,71.19
2022-12-27T02:26:35.352Z,69.92
2022-12-27T02:30:05.423Z,69.92
2022-12-27T02:33:15.218Z,69.38
2022-12-27T02:36:25.052Z,69.36
2022-12-27T02:39:30.743Z,69.31
2022-12-27T02:43:00.233Z,69.48
2022-12-27T02:46:30.519Z,73.45
2022-12-27T02:49:53.099Z,71.92
2022-12-27T02:53:09.192Z,70.92
2022-12-27T02:56:45.915Z,69.82
2022-12-27T03:00:21.118Z,69.93
2022-12-27T03:03:44.035Z,69.08
2022-12-27T03:07:01.501Z,69.85
2022-12-27T03:10:35.857Z,71.01
2022-12-27T03:14:04.172Z,71.48
2022-12-27T03:17:14.356Z,70.53
2022-12-27T03:20:38.119Z,72.07
2022-12-27T03:24:02.206Z,72.04
2022-12-27T03:27:18.403Z,70.33
2022-12-27T03:30:51.019Z,70.11
2022-12-27T03:34:04.688Z,69.67
2022-12-27T03:37:32.262Z,69.14
2022-12-27T03:41:01.813Z,69.62
2022-12-27T03:44:24.345Z,70.57
2022-12-27T03:47:38.039Z,69.85
2022-12-27T03:50:46.482Z,69.85
2022-12-27T03:53:55.853Z,70.40
2022-12-27T03:57:02.531Z,71.11
2022-12-27T04:00:07.334Z,74.02
2022-12-27T04:03:16.697Z,71.11
2022-12-27T04:06:20.642Z,70.45
2022-12-27T04:09:43.385Z,70.04
2022-12-27T04:13:04.206Z,69.75
2022-12-27T04:16:26.541Z,69.74
2022-12-27T04:19:47.644Z,69.62
2022-12-27T04:23:08.792Z,69.39
2022-12-27T04:26:31.192Z,68.70
2022-12-27T04:29:52.384Z,68.58
2022-12-27T04:33:13.479Z,69.15
2022-12-27T04:36:16.945Z,68.68
2022-12-27T04:39:20.563Z,69.02
2022-12-27T04:42:43.118Z,69.08
2022-12-27T04:46:04.162Z,70.20
2022-12-27T04:49:28.345Z,69.99
2022-12-27T04:52:49.148Z,69.99
2022-12-27T04:55:54.474Z,70.08
2022-12-27T04:59:17.374Z,71.29
2022-12-27T05:02:21.660Z,72.37
2022-12-27T05:05:26.381Z,75.45
2022-12-27T05:08:48.887Z,73.60
2022-12-27T05:12:15.353Z,72.23
2022-12-27T05:15:20.460Z,70.93
2022-12-27T05:18:24.660Z,71.77
2022-12-27T05:21:28.541Z,70.45
2022-12-27T05:24:49.603Z,70.17
2022-12-27T05:27:53.148Z,71.79
2022-12-27T05:31:03.208Z,70.57
2022-12-27T05:34:07.636Z,70.72
2022-12-27T05:37:11.319Z,70.37
2022-12-27T05:40:15.173Z,70.52
2022-12-27T05:43:18.932Z,70.31
2022-12-27T05:46:24.341Z,70.46
2022-12-27T05:49:28.121Z,70.84
2022-12-27T05:52:36.188Z,71.34
2022-12-27T05:55:43.141Z,70.75
2022-12-27T05:58:47.096Z,71.89
2022-12-27T06:01:53.258Z,72.73
2022-12-27T06:04:57.014Z,72.43
2022-12-27T06:08:01.383Z,72.54
2022-12-27T06:11:07.058Z,72.06
2022-12-27T06:14:12.082Z,71.35
2022-12-27T06:17:17.282Z,72.20
2022-12-27T06:20:21.809Z,72.25
2022-12-27T06:23:25.500Z,72.74
2022-12-27T06:26:31.355Z,71.42
2022-12-27T06:29:35.659Z,70.06
2022-12-27T06:32:41.033Z,69.25
2022-12-27T06:35:44.834Z,67.99
2022-12-27T06:38:48.971Z,65.79
2022-12-27T06:41:55.529Z,66.65
2022-12-27T06:44:59.279Z,66.11
2022-12-27T06:48:04.581Z,66.28
2022-12-27T06:51:10.911Z,66.92
2022-12-27T06:54:14.719Z,66.96
2022-12-27T06:57:18.553Z,67.34
2022-12-27T07:00:22.435Z,68.12
2022-12-27T07:03:27.698Z,68.40
2022-12-27T07:06:33.339Z,67.74
2022-12-27T07:09:37.092Z,68.81
2022-12-27T07:12:40.963Z,68.57
2022-12-27T07:15:45.590Z,69.77
2022-12-27T07:18:51.233Z,69.20
2022-12-27T07:21:55.048Z,68.59
2022-12-27T07:24:58.781Z,69.49
2022-12-27T07:28:02.513Z,70.05
2022-12-27T07:31:09.455Z,68.80
2022-12-27T07:34:14.849Z,64.16
2022-12-27T07:37:18.755Z,65.32
2022-12-27T07:40:22.546Z,63.92
2022-12-27T07:43:26.223Z,62.57
2022-12-27T07:46:30.739Z,62.19
2022-12-27T07:49:35.939Z,61.63
2022-12-27T07:52:39.759Z,60.64
2022-12-27T07:55:43.591Z,61.62
2022-12-27T07:58:49.053Z,60.38
2022-12-27T08:02:08.102Z,59.57
2022-12-27T08:05:13.463Z,57.57
2022-12-27T08:08:20.089Z,58.66
2022-12-27T08:11:23.785Z,57.99
2022-12-27T08:14:27.668Z,56.54
2022-12-27T08:17:31.988Z,56.31
2022-12-27T08:20:37.490Z,54.78
2022-12-27T08:23:41.399Z,54.42
2022-12-27T08:26:45.109Z,54.33
2022-12-27T08:29:48.920Z,54.04
2022-12-27T08:32:52.689Z,52.98
2022-12-27T08:35:58.929Z,53.00
2022-12-27T08:39:02.621Z,53.60
2022-12-27T08:42:06.808Z,54.06
2022-12-27T08:45:11.673Z,51.68
2022-12-27T08:48:16.446Z,51.49
2022-12-27T08:51:31.637Z,50.81
2022-12-27T08:54:36.765Z,50.36
2022-12-27T08:57:40.544Z,50.47
2022-12-27T09:00:44.282Z,50.19
2022-12-27T09:03:48.176Z,49.09
2022-12-27T09:06:53.564Z,48.76
2022-12-27T09:09:57.399Z,48.26
2022-12-27T09:13:01.087Z,48.32
2022-12-27T09:16:08.314Z,48.21
2022-12-27T09:19:12.381Z,47.33
2022-12-27T09:22:17.675Z,47.47
2022-12-27T09:25:21.426Z,47.69
2022-12-27T09:28:25.170Z,47.02
2022-12-27T09:31:29.596Z,46.77
2022-12-27T09:34:33.382Z,46.38
2022-12-27T09:37:38.620Z,45.99
2022-12-27T09:40:52.326Z,46.52
2022-12-27T09:44:01.734Z,45.97
2022-12-27T09:47:12.394Z,45.70
2022-12-27T09:50:21.544Z,45.90
2022-12-27T09:53:39.472Z,45.62
2022-12-27T09:57:17.846Z,44.98
2022-12-27T10:00:16.183Z,44.62
2022-12-27T10:03:23.522Z,45.21
2022-12-27T10:06:49.109Z,44.98
2022-12-27T10:10:02.532Z,44.28
2022-12-27T10:13:15.250Z,44.36
2022-12-27T10:16:30.447Z,45.25
2022-12-27T10:19:46.284Z,45.58
2022-12-27T10:22:54.649Z,45.25
2022-12-27T10:26:01.758Z,44.32
2022-12-27T10:29:18.910Z,44.64
2022-12-27T10:32:23.151Z,43.57
2022-12-27T10:35:29.212Z,44.12
2022-12-27T10:38:35.588Z,44.27
2022-12-27T10:41:53.245Z,44.17
2022-12-27T10:45:26.884Z,43.47
2022-12-27T10:48:41.506Z,44.97
2022-12-27T10:51:57.398Z,44.23
2022-12-27T10:55:01.121Z,44.43
2022-12-27T10:58:37.243Z,44.88
2022-12-27T11:01:41.508Z,45.92
2022-12-27T11:04:59.841Z,45.42
2022-12-27T11:08:21.683Z,45.74
2022-12-27T11:11:28.404Z,44.79
2022-12-27T11:14:33.556Z,45.12
2022-12-27T11:17:39.786Z,44.43
2022-12-27T11:20:49.304Z,42.76
2022-12-27T11:23:55.549Z,42.87
2022-12-27T11:27:00.713Z,42.88
2022-12-27T11:30:07.798Z,42.89
2022-12-27T11:33:24.999Z,43.68
2022-12-27T11:36:32.677Z,43.34
2022-12-27T11:39:41.795Z,43.36
2022-12-27T11:42:49.144Z,43.34
2022-12-27T11:45:56.165Z,43.44
2022-12-27T11:49:00.653Z,43.49
2022-12-27T11:52:47.207Z,43.66
2022-12-27T11:56:19.258Z,43.51
2022-12-27T11:59:47.506Z,43.26
2022-12-27T12:03:13.482Z,43.00
2022-12-27T12:06:28.802Z,43.58
2022-12-27T12:10:00.594Z,43.00
2022-12-27T12:13:39.363Z,43.67
2022-12-27T12:17:10.160Z,42.85
2022-12-27T12:20:50.938Z,43.07
2022-12-27T12:24:38.042Z,43.07
2022-12-27T12:27:55.238Z,42.86
2022-12-27T12:31:13.041Z,43.17
2022-12-27T12:34:40.013Z,43.71
2022-12-27T12:38:03.730Z,43.99
2022-12-27T12:41:36.792Z,43.86
2022-12-27T12:45:17.616Z,44.54
2022-12-27T12:48:41.512Z,44.10
2022-12-27T12:52:05.152Z,44.53
2022-12-27T12:55:45.190Z,44.19
2022-12-27T12:58:58.706Z,43.75
2022-12-27T13:02:18.086Z,44.15
2022-12-27T13:05:32.860Z,44.07
2022-12-27T13:08:44.385Z,44.53
2022-12-27T13:12:00.475Z,44.60
2022-12-27T13:15:30.491Z,44.99
2022-12-27T13:18:45.012Z,44.92
2022-12-27T13:22:01.035Z,44.46
2022-12-27T13:25:20.769Z,44.47
2022-12-27T13:28:40.602Z,44.37
2022-12-27T13:31:54.540Z,44.44
2022-12-27T13:35:20.194Z,44.10
2022-12-27T13:38:38.675Z,44.13
2022-12-27T13:42:07.072Z,44.36
2022-12-27T13:45:28.005Z,44.02
2022-12-27T13:49:00.555Z,44.38
2022-12-27T13:52:18.430Z,44.96
2022-12-27T13:55:48.242Z,45.61
2022-12-27T13:59:07.275Z,45.65
2022-12-27T14:02:39.407Z,46.33
2022-12-27T14:06:07.940Z,46.70
2022-12-27T14:09:48.801Z,47.42
2022-12-27T14:13:01.266Z,47.91
2022-12-27T14:16:23.233Z,48.58
2022-12-27T14:19:59.173Z,48.74
2022-12-27T14:23:28.594Z,49.49
2022-12-27T14:27:23.971Z,49.78
2022-12-27T14:31:13.042Z,49.65
2022-12-27T14:34:59.873Z,50.30
2022-12-27T14:38:41.962Z,50.89
2022-12-27T14:42:34.144Z,51.09
2022-12-27T14:46:06.767Z,51.84
2022-12-27T14:49:52.423Z,52.58
2022-12-27T14:53:25.877Z,52.89
2022-12-27T14:56:35.352Z,53.30
2022-12-27T14:59:50.819Z,54.11
2022-12-27T15:03:19.939Z,54.32
2022-12-27T15:06:36.011Z,54.69
2022-12-27T15:09:50.291Z,54.70
2022-12-27T15:13:05.790Z,55.26
2022-12-27T15:16:17.169Z,55.76
2022-12-27T15:19:43.524Z,56.35
2022-12-27T15:22:59.199Z,56.49
2022-12-27T15:26:23.155Z,56.38
2022-12-27T15:29:39.429Z,56.80
2022-12-27T15:32:53.649Z,56.41
2022-12-27T15:36:04.032Z,56.28
2022-12-27T15:39:28.543Z,55.85
2022-12-27T15:42:55.674Z,56.24
2022-12-27T15:46:12.746Z,56.35
2022-12-27T15:49:33.084Z,56.51
2022-12-27T15:52:53.333Z,56.56
2022-12-27T15:56:29.465Z,56.30
2022-12-27T15:59:39.155Z,56.29
2022-12-27T16:02:55.160Z,56.38
2022-12-27T16:05:59.760Z,56.08
2022-12-27T16:09:37.048Z,56.16
2022-12-27T16:12:41.783Z,55.82
2022-12-27T16:15:53.088Z,55.97
2022-12-27T16:19:11.681Z,56.20
2022-12-27T16:22:26.704Z,55.71
2022-12-27T16:25:34.438Z,55.99
2022-12-27T16:28:39.659Z,56.02
2022-12-27T16:31:46.989Z,56.09
2022-12-27T16:34:55.766Z,56.20
2022-12-27T16:38:03.733Z,56.58
2022-12-27T16:41:18.205Z,57.03
2022-12-27T16:44:38.247Z,57.18
2022-12-27T16:48:18.164Z,57.64
2022-12-27T16:51:37.214Z,57.89
2022-12-27T16:54:54.948Z,57.93
2022-12-27T16:58:33.417Z,57.82
2022-12-27T17:01:58.864Z,57.91
2022-12-27T17:05:02.851Z,58.60
2022-12-27T17:08:26.123Z,58.61
2022-12-27T17:11:31.233Z,58.82
2022-12-27T17:14:38.759Z,58.61
2022-12-27T17:17:48.160Z,59.01
2022-12-27T17:21:01.768Z,59.08
2022-12-27T17:24:11.757Z,58.91
2022-12-27T17:27:28.579Z,59.25
2022-12-27T17:30:46.382Z,59.94
2022-12-27T17:34:01.688Z,59.86
2022-12-27T17:37:15.732Z,59.92
2022-12-27T17:40:32.438Z,59.96
2022-12-27T17:44:06.100Z,59.74
2022-12-27T17:47:24.442Z,59.61
2022-12-27T17:50:28.792Z,59.62
2022-12-27T17:53:50.063Z,59.61
2022-12-27T17:57:21.483Z,59.68
2022-12-27T18:00:27.661Z,59.32
2022-12-27T18:03:37.341Z,59.58
2022-12-27T18:06:41.243Z,59.70
2022-12-27T18:09:48.765Z,59.76
2022-12-27T18:12:56.699Z,60.57
2022-12-27T18:16:00.818Z,59.98
2022-12-27T18:19:05.212Z,60.07
2022-12-27T18:22:20.456Z,60.13
2022-12-27T18:25:25.867Z,60.12
2022-12-27T18:28:34.119Z,60.75
2022-12-27T18:31:47.511Z,60.34
2022-12-27T18:34:55.870Z,60.52
2022-12-27T18:37:59.692Z,60.38
2022-12-27T18:41:07.421Z,60.66
2022-12-27T18:44:22.993Z,61.15
2022-12-27T18:47:30.668Z,61.49
2022-12-27T18:50:36.040Z,61.54
2022-12-27T18:53:41.215Z,62.09
2022-12-27T18:56:44.920Z,62.42
2022-12-27T19:00:02.852Z,62.91
2022-12-27T19:03:17.014Z,62.59
2022-12-27T19:06:20.895Z,62.81
2022-12-27T19:09:28.178Z,62.34
2022-12-27T19:12:35.511Z,62.36
2022-12-27T19:15:44.108Z,62.12
2022-12-27T19:18:53.034Z,62.33
2022-12-27T19:21:57.705Z,62.78
2022-12-27T19:25:01.956Z,62.45
2022-12-27T19:28:21.414Z,63.40
2022-12-27T19:31:26.777Z,63.10
2022-12-27T19:34:34.238Z,63.01
2022-12-27T19:37:38.098Z,63.91
2022-12-27T19:40:42.058Z,63.88
2022-12-27T19:43:47.639Z,64.14
2022-12-27T19:46:52.890Z,64.39
2022-12-27T19:49:56.605Z,64.47
2022-12-27T19:53:00.590Z,64.14
2022-12-27T19:56:04.359Z,64.39
2022-12-27T19:59:08.370Z,64.36
2022-12-27T20:02:13.716Z,64.09
2022-12-27T20:05:17.958Z,64.18
2022-12-27T20:08:44.939Z,64.36
2022-12-27T20:11:50.757Z,63.89
2022-12-27T20:14:54.503Z,63.68
2022-12-27T20:17:59.832Z,64.06
2022-12-27T20:21:03.499Z,63.13
2022-12-27T20:24:08.088Z,63.25
2022-12-27T20:27:11.912Z,64.34
2022-12-27T20:30:15.931Z,64.00
2022-12-27T20:33:21.053Z,64.94
2022-12-27T20:36:25.722Z,66.18
2022-12-27T20:39:29.414Z,65.85
2022-12-27T20:42:33.252Z,66.28
2022-12-27T20:45:37.086Z,66.00
2022-12-27T20:48:44.092Z,66.29
2022-12-27T20:51:47.832Z,65.77
2022-12-27T20:54:52.654Z,65.23
2022-12-27T20:57:56.559Z,65.04
2022-12-27T21:01:06.654Z,64.83
2022-12-27T21:04:12.311Z,65.05
2022-12-27T21:07:16.119Z,65.05
2022-12-27T21:10:20.048Z,64.76
2022-12-27T21:13:23.772Z,65.02
2022-12-27T21:16:29.829Z,64.58
2022-12-27T21:19:35.053Z,64.19
2022-12-27T21:22:38.893Z,64.05
2022-12-27T21:25:42.743Z,63.84
2022-12-27T21:28:47.384Z,63.70
2022-12-27T21:31:51.982Z,63.50
2022-12-27T21:34:57.250Z,63.76
2022-12-27T21:38:01.081Z,63.66
2022-12-27T21:41:07.014Z,63.14
2022-12-27T21:44:11.043Z,63.34
2022-12-27T21:47:14.791Z,62.77
2022-12-27T21:50:20.169Z,62.63
2022-12-27T21:53:24.635Z,62.87
2022-12-27T21:56:29.055Z,63.02
2022-12-27T21:59:32.929Z,63.22
2022-12-27T22:02:36.765Z,62.52
2022-12-27T22:05:42.088Z,63.66
2022-12-27T22:08:47.745Z,65.02
2022-12-27T22:11:51.499Z,64.97
2022-12-27T22:14:55.192Z,63.98
2022-12-27T22:17:58.997Z,63.59
2022-12-27T22:21:07.711Z,63.98
2022-12-27T22:24:17.362Z,63.85
2022-12-27T22:27:21.423Z,63.65
2022-12-27T22:30:25.513Z,63.83
2022-12-27T22:33:29.317Z,63.58
2022-12-27T22:36:35.273Z,63.49
2022-12-27T22:39:39.008Z,63.46
2022-12-27T22:42:42.911Z,63.68
2022-12-27T22:45:53.470Z,63.38
2022-12-27T22:48:59.839Z,63.13
2022-12-27T22:52:05.233Z,62.75
2022-12-27T22:55:09.354Z,62.36
2022-12-27T22:58:13.033Z,62.25
2022-12-27T23:01:19.104Z,62.49
2022-12-27T23:04:23.035Z,62.99
2022-12-27T23:08:05.653Z,63.41
2022-12-27T23:10:52.152Z,63.22
2022-12-27T23:13:57.348Z,63.11
2022-12-27T23:17:01.137Z,62.40
2022-12-27T23:20:05.671Z,62.40
2022-12-27T23:23:10.820Z,61.87
2022-12-27T23:26:15.931Z,62.15
2022-12-27T23:29:19.737Z,62.27
2022-12-27T23:32:23.511Z,62.27
2022-12-27T23:35:27.438Z,61.77
2022-12-27T23:38:32.683Z,62.21
2022-12-27T23:41:37.414Z,62.05
2022-12-27T23:44:41.090Z,61.27
2022-12-27T23:47:44.914Z,61.23
2022-12-27T23:50:49.305Z,60.73
2022-12-27T23:53:54.771Z,61.04
2022-12-27T23:56:58.789Z,60.60
